sensor_id;sensor_type;location;lat;lon;timestamp;pressure;altitude;pressure_sealevel;temperature;humidity
55540;BME280;41384;51.418;7.286;2023-05-25T00:01:27;100742.47;;;10.62;98.30
55540;BME280;41384;51.418;7.286;2023-05-25T00:03:52;100736.81;;;10.65;97.79
55540;BME280;41384;51.418;7.286;2023-05-25T00:06:19;100740.97;;;10.75;99.69
55540;BME280;41384;51.418;7.286;2023-05-25T00:08:44;100737.50;;;10.74;99.94
55540;BME280;41384;51.418;7.286;2023-05-25T00:11:10;100737.59;;;10.81;99.97
55540;BME280;41384;51.418;7.286;2023-05-25T00:13:36;100744.78;;;10.87;99.71
55540;BME280;41384;51.418;7.286;2023-05-25T00:16:01;100733.28;;;10.95;98.77
55540;BME280;41384;51.418;7.286;2023-05-25T00:18:27;100727.94;;;10.88;100.00
55540;BME280;41384;51.418;7.286;2023-05-25T00:20:52;100728.34;;;11.07;99.23
55540;BME280;41384;51.418;7.286;2023-05-25T00:23:18;100730.34;;;11.05;100.00
55540;BME280;41384;51.418;7.286;2023-05-25T00:25:44;100727.41;;;11.15;99.54
55540;BME280;41384;51.418;7.286;2023-05-25T00:28:10;100725.78;;;11.14;98.09
55540;BME280;41384;51.418;7.286;2023-05-25T00:30:35;100732.13;;;11.19;97.42
55540;BME280;41384;51.418;7.286;2023-05-25T00:33:01;100727.72;;;11.27;96.22
55540;BME280;41384;51.418;7.286;2023-05-25T00:35:27;100732.00;;;11.28;95.04
55540;BME280;41384;51.418;7.286;2023-05-25T00:37:52;100725.28;;;11.47;94.13
55540;BME280;41384;51.418;7.286;2023-05-25T00:40:18;100727.78;;;11.33;93.29
55540;BME280;41384;51.418;7.286;2023-05-25T00:42:43;100728.47;;;11.20;93.61
55540;BME280;41384;51.418;7.286;2023-05-25T00:45:09;100728.69;;;11.19;93.62
55540;BME280;41384;51.418;7.286;2023-05-25T00:47:34;100729.81;;;11.09;94.53
55540;BME280;41384;51.418;7.286;2023-05-25T00:50:00;100728.31;;;10.70;95.94
55540;BME280;41384;51.418;7.286;2023-05-25T00:52:26;100726.06;;;10.67;95.81
55540;BME280;41384;51.418;7.286;2023-05-25T00:54:54;100730.97;;;10.70;96.45
55540;BME280;41384;51.418;7.286;2023-05-25T00:57:24;100728.22;;;10.78;95.44
55540;BME280;41384;51.418;7.286;2023-05-25T00:59:53;100727.25;;;11.01;94.33
55540;BME280;41384;51.418;7.286;2023-05-25T01:02:20;100724.91;;;11.06;93.67
55540;BME280;41384;51.418;7.286;2023-05-25T01:04:51;100725.63;;;11.00;92.61
55540;BME280;41384;51.418;7.286;2023-05-25T01:07:20;100736.03;;;10.87;92.66
55540;BME280;41384;51.418;7.286;2023-05-25T01:09:47;100724.69;;;10.71;93.43
55540;BME280;41384;51.418;7.286;2023-05-25T01:12:14;100728.03;;;10.80;93.21
55540;BME280;41384;51.418;7.286;2023-05-25T01:14:40;100729.75;;;10.88;94.32
55540;BME280;41384;51.418;7.286;2023-05-25T01:17:05;100733.50;;;10.78;92.06
55540;BME280;41384;51.418;7.286;2023-05-25T01:19:31;100729.59;;;10.74;93.25
55540;BME280;41384;51.418;7.286;2023-05-25T01:22:00;100727.69;;;10.68;92.66
55540;BME280;41384;51.418;7.286;2023-05-25T01:24:32;100731.16;;;10.54;92.66
55540;BME280;41384;51.418;7.286;2023-05-25T01:27:08;100724.22;;;10.37;93.69
55540;BME280;41384;51.418;7.286;2023-05-25T01:29:39;100722.41;;;10.38;94.42
55540;BME280;41384;51.418;7.286;2023-05-25T01:32:06;100728.78;;;10.44;92.48
55540;BME280;41384;51.418;7.286;2023-05-25T01:34:33;100731.00;;;10.40;92.88
55540;BME280;41384;51.418;7.286;2023-05-25T01:36:59;100729.84;;;10.34;94.22
55540;BME280;41384;51.418;7.286;2023-05-25T01:39:24;100730.44;;;10.45;92.55
55540;BME280;41384;51.418;7.286;2023-05-25T01:41:50;100734.50;;;10.32;93.83
55540;BME280;41384;51.418;7.286;2023-05-25T01:44:15;100728.75;;;10.14;94.61
55540;BME280;41384;51.418;7.286;2023-05-25T01:46:41;100730.28;;;10.08;94.34
55540;BME280;41384;51.418;7.286;2023-05-25T01:49:22;100733.69;;;10.17;94.43
55540;BME280;41384;51.418;7.286;2023-05-25T01:52:06;100727.28;;;10.11;95.50
55540;BME280;41384;51.418;7.286;2023-05-25T01:54:36;100725.94;;;10.15;93.13
55540;BME280;41384;51.418;7.286;2023-05-25T01:57:06;100725.13;;;10.30;92.62
55540;BME280;41384;51.418;7.286;2023-05-25T01:59:32;100724.03;;;10.39;93.02
55540;BME280;41384;51.418;7.286;2023-05-25T02:01:59;100726.06;;;10.52;93.36
55540;BME280;41384;51.418;7.286;2023-05-25T02:04:25;100726.16;;;10.59;92.92
55540;BME280;41384;51.418;7.286;2023-05-25T02:06:51;100731.63;;;10.42;95.33
55540;BME280;41384;51.418;7.286;2023-05-25T02:09:16;100735.16;;;10.19;97.41
55540;BME280;41384;51.418;7.286;2023-05-25T02:11:42;100727.41;;;10.33;96.85
55540;BME280;41384;51.418;7.286;2023-05-25T02:14:07;100726.41;;;10.49;94.08
55540;BME280;41384;51.418;7.286;2023-05-25T02:16:33;100723.78;;;10.49;94.49
55540;BME280;41384;51.418;7.286;2023-05-25T02:19:00;100727.97;;;10.58;93.19
55540;BME280;41384;51.418;7.286;2023-05-25T02:21:25;100730.53;;;10.51;92.95
55540;BME280;41384;51.418;7.286;2023-05-25T02:23:51;100742.22;;;10.19;91.52
55540;BME280;41384;51.418;7.286;2023-05-25T02:26:18;100743.25;;;10.33;93.01
55540;BME280;41384;51.418;7.286;2023-05-25T02:28:43;100742.47;;;10.47;90.79
55540;BME280;41384;51.418;7.286;2023-05-25T02:31:08;100742.69;;;10.22;92.22
55540;BME280;41384;51.418;7.286;2023-05-25T02:33:34;100740.69;;;10.25;91.71
55540;BME280;41384;51.418;7.286;2023-05-25T02:35:59;100745.16;;;10.39;90.25
55540;BME280;41384;51.418;7.286;2023-05-25T02:38:24;100738.91;;;10.40;89.68
55540;BME280;41384;51.418;7.286;2023-05-25T02:40:50;100743.34;;;10.25;89.59
55540;BME280;41384;51.418;7.286;2023-05-25T02:43:15;100754.53;;;10.27;89.63
55540;BME280;41384;51.418;7.286;2023-05-25T02:45:41;100756.31;;;9.96;89.96
55540;BME280;41384;51.418;7.286;2023-05-25T02:48:06;100751.94;;;10.03;90.31
55540;BME280;41384;51.418;7.286;2023-05-25T02:50:31;100749.31;;;10.03;87.91
55540;BME280;41384;51.418;7.286;2023-05-25T02:52:56;100756.47;;;9.95;89.60
55540;BME280;41384;51.418;7.286;2023-05-25T02:55:22;100759.94;;;9.95;91.52
55540;BME280;41384;51.418;7.286;2023-05-25T02:57:50;100754.59;;;10.03;89.65
55540;BME280;41384;51.418;7.286;2023-05-25T03:00:16;100761.44;;;9.74;91.80
55540;BME280;41384;51.418;7.286;2023-05-25T03:02:41;100764.06;;;9.74;91.18
55540;BME280;41384;51.418;7.286;2023-05-25T03:05:07;100760.19;;;9.62;92.02
55540;BME280;41384;51.418;7.286;2023-05-25T03:07:32;100754.47;;;9.58;93.58
55540;BME280;41384;51.418;7.286;2023-05-25T03:09:58;100761.59;;;9.49;93.20
55540;BME280;41384;51.418;7.286;2023-05-25T03:12:23;100767.69;;;9.50;92.63
55540;BME280;41384;51.418;7.286;2023-05-25T03:14:48;100774.25;;;9.54;91.54
55540;BME280;41384;51.418;7.286;2023-05-25T03:17:14;100763.47;;;9.64;91.80
55540;BME280;41384;51.418;7.286;2023-05-25T03:19:39;100763.00;;;9.60;90.13
55540;BME280;41384;51.418;7.286;2023-05-25T03:22:05;100764.88;;;9.52;92.02
55540;BME280;41384;51.418;7.286;2023-05-25T03:24:30;100764.78;;;9.45;94.17
55540;BME280;41384;51.418;7.286;2023-05-25T03:26:55;100770.84;;;9.45;93.32
55540;BME280;41384;51.418;7.286;2023-05-25T03:29:21;100767.16;;;9.55;93.68
55540;BME280;41384;51.418;7.286;2023-05-25T03:31:46;100766.66;;;9.59;95.03
55540;BME280;41384;51.418;7.286;2023-05-25T03:34:12;100774.19;;;9.86;93.72
55540;BME280;41384;51.418;7.286;2023-05-25T03:36:37;100768.44;;;9.82;92.41
55540;BME280;41384;51.418;7.286;2023-05-25T03:39:03;100774.66;;;9.66;93.17
55540;BME280;41384;51.418;7.286;2023-05-25T03:41:29;100777.84;;;9.61;95.09
55540;BME280;41384;51.418;7.286;2023-05-25T03:43:54;100770.03;;;9.45;93.77
55540;BME280;41384;51.418;7.286;2023-05-25T03:46:19;100773.38;;;9.62;93.31
55540;BME280;41384;51.418;7.286;2023-05-25T03:48:45;100776.84;;;9.62;93.04
55540;BME280;41384;51.418;7.286;2023-05-25T03:51:10;100778.28;;;9.65;94.96
55540;BME280;41384;51.418;7.286;2023-05-25T03:53:35;100779.88;;;9.51;96.84
55540;BME280;41384;51.418;7.286;2023-05-25T03:56:00;100785.56;;;9.63;92.90
55540;BME280;41384;51.418;7.286;2023-05-25T03:58:26;100784.63;;;9.79;94.05
55540;BME280;41384;51.418;7.286;2023-05-25T04:00:51;100794.44;;;9.85;94.79
55540;BME280;41384;51.418;7.286;2023-05-25T04:03:16;100790.06;;;10.16;92.45
55540;BME280;41384;51.418;7.286;2023-05-25T04:05:42;100791.34;;;10.20;90.92
55540;BME280;41384;51.418;7.286;2023-05-25T04:08:12;100796.28;;;10.23;90.99
55540;BME280;41384;51.418;7.286;2023-05-25T04:10:38;100797.06;;;10.08;91.03
55540;BME280;41384;51.418;7.286;2023-05-25T04:13:03;100800.59;;;10.01;93.55
55540;BME280;41384;51.418;7.286;2023-05-25T04:15:28;100802.72;;;9.82;95.10
55540;BME280;41384;51.418;7.286;2023-05-25T04:17:54;100803.63;;;9.74;95.14
55540;BME280;41384;51.418;7.286;2023-05-25T04:20:19;100802.31;;;9.70;97.87
55540;BME280;41384;51.418;7.286;2023-05-25T04:22:45;100806.72;;;9.78;97.42
55540;BME280;41384;51.418;7.286;2023-05-25T04:25:10;100811.75;;;9.88;97.24
55540;BME280;41384;51.418;7.286;2023-05-25T04:27:35;100811.41;;;9.91;97.63
55540;BME280;41384;51.418;7.286;2023-05-25T04:30:02;100816.03;;;9.89;97.87
55540;BME280;41384;51.418;7.286;2023-05-25T04:32:27;100815.69;;;9.92;96.84
55540;BME280;41384;51.418;7.286;2023-05-25T04:34:57;100819.81;;;9.86;99.55
55540;BME280;41384;51.418;7.286;2023-05-25T04:37:23;100815.06;;;10.05;97.30
55540;BME280;41384;51.418;7.286;2023-05-25T04:39:51;100814.59;;;10.01;98.38
55540;BME280;41384;51.418;7.286;2023-05-25T04:42:16;100819.94;;;10.16;97.25
55540;BME280;41384;51.418;7.286;2023-05-25T04:44:41;100830.69;;;10.30;95.31
55540;BME280;41384;51.418;7.286;2023-05-25T04:47:07;100823.22;;;10.33;96.33
55540;BME280;41384;51.418;7.286;2023-05-25T04:49:32;100830.56;;;10.46;95.05
55540;BME280;41384;51.418;7.286;2023-05-25T04:51:58;100822.81;;;10.45;96.23
55540;BME280;41384;51.418;7.286;2023-05-25T04:54:23;100828.63;;;10.55;95.25
55540;BME280;41384;51.418;7.286;2023-05-25T04:56:48;100824.63;;;10.59;94.69
55540;BME280;41384;51.418;7.286;2023-05-25T04:59:13;100825.47;;;10.60;96.11
55540;BME280;41384;51.418;7.286;2023-05-25T05:01:39;100814.38;;;10.64;94.11
55540;BME280;41384;51.418;7.286;2023-05-25T05:04:08;100829.63;;;10.54;96.48
55540;BME280;41384;51.418;7.286;2023-05-25T05:06:34;100833.75;;;10.57;97.73
55540;BME280;41384;51.418;7.286;2023-05-25T05:09:00;100832.75;;;10.58;97.62
55540;BME280;41384;51.418;7.286;2023-05-25T05:11:26;100839.66;;;10.59;98.75
55540;BME280;41384;51.418;7.286;2023-05-25T05:13:52;100845.50;;;10.69;97.83
55540;BME280;41384;51.418;7.286;2023-05-25T05:16:18;100847.78;;;10.72;98.16
55540;BME280;41384;51.418;7.286;2023-05-25T05:18:43;100849.16;;;10.68;97.21
55540;BME280;41384;51.418;7.286;2023-05-25T05:21:08;100851.88;;;10.60;97.97
55540;BME280;41384;51.418;7.286;2023-05-25T05:23:33;100858.72;;;10.69;98.05
55540;BME280;41384;51.418;7.286;2023-05-25T05:25:59;100862.16;;;10.85;96.88
55540;BME280;41384;51.418;7.286;2023-05-25T05:28:25;100856.63;;;10.79;97.55
55540;BME280;41384;51.418;7.286;2023-05-25T05:30:52;100874.16;;;10.57;100.00
55540;BME280;41384;51.418;7.286;2023-05-25T05:33:17;100878.44;;;10.58;100.00
55540;BME280;41384;51.418;7.286;2023-05-25T05:35:42;100871.00;;;10.62;100.00
55540;BME280;41384;51.418;7.286;2023-05-25T05:38:08;100874.09;;;10.80;98.57
55540;BME280;41384;51.418;7.286;2023-05-25T05:40:33;100876.66;;;10.89;100.00
55540;BME280;41384;51.418;7.286;2023-05-25T05:42:58;100882.41;;;11.07;98.81
55540;BME280;41384;51.418;7.286;2023-05-25T05:45:24;100882.41;;;11.07;98.89
55540;BME280;41384;51.418;7.286;2023-05-25T05:47:49;100887.06;;;11.05;99.55
55540;BME280;41384;51.418;7.286;2023-05-25T05:50:15;100886.41;;;11.18;98.33
55540;BME280;41384;51.418;7.286;2023-05-25T05:52:40;100881.72;;;11.35;97.93
55540;BME280;41384;51.418;7.286;2023-05-25T05:55:05;100889.81;;;11.49;97.53
55540;BME280;41384;51.418;7.286;2023-05-25T05:57:31;100899.75;;;11.47;96.59
55540;BME280;41384;51.418;7.286;2023-05-25T05:59:57;100898.00;;;11.54;95.96
55540;BME280;41384;51.418;7.286;2023-05-25T06:02:22;100901.25;;;11.19;97.20
55540;BME280;41384;51.418;7.286;2023-05-25T06:04:47;100899.34;;;11.28;97.88
55540;BME280;41384;51.418;7.286;2023-05-25T06:07:13;100903.03;;;11.49;96.79
55540;BME280;41384;51.418;7.286;2023-05-25T06:09:38;100899.38;;;11.50;96.34
55540;BME280;41384;51.418;7.286;2023-05-25T06:12:05;100897.72;;;11.64;96.18
55540;BME280;41384;51.418;7.286;2023-05-25T06:14:30;100895.38;;;11.54;96.34
55540;BME280;41384;51.418;7.286;2023-05-25T06:16:55;100889.34;;;11.60;95.97
55540;BME280;41384;51.418;7.286;2023-05-25T06:19:21;100904.31;;;11.53;96.16
55540;BME280;41384;51.418;7.286;2023-05-25T06:21:46;100903.56;;;11.59;96.66
55540;BME280;41384;51.418;7.286;2023-05-25T06:24:11;100898.47;;;11.58;96.17
55540;BME280;41384;51.418;7.286;2023-05-25T06:26:36;100906.84;;;11.61;96.59
55540;BME280;41384;51.418;7.286;2023-05-25T06:29:02;100898.28;;;11.59;96.85
55540;BME280;41384;51.418;7.286;2023-05-25T06:31:27;100905.19;;;11.60;97.12
55540;BME280;41384;51.418;7.286;2023-05-25T06:33:52;100903.44;;;11.67;97.82
55540;BME280;41384;51.418;7.286;2023-05-25T06:36:17;100904.06;;;11.70;97.81
55540;BME280;41384;51.418;7.286;2023-05-25T06:38:43;100910.19;;;11.70;97.90
55540;BME280;41384;51.418;7.286;2023-05-25T06:41:09;100917.75;;;11.73;97.82
55540;BME280;41384;51.418;7.286;2023-05-25T06:43:38;100918.19;;;11.77;98.45
55540;BME280;41384;51.418;7.286;2023-05-25T06:46:04;100915.25;;;12.02;95.24
55540;BME280;41384;51.418;7.286;2023-05-25T06:48:29;100917.13;;;12.08;96.38
55540;BME280;41384;51.418;7.286;2023-05-25T06:50:54;100918.06;;;12.00;97.51
55540;BME280;41384;51.418;7.286;2023-05-25T06:53:20;100921.19;;;11.89;97.88
55540;BME280;41384;51.418;7.286;2023-05-25T06:55:45;100920.72;;;12.22;95.97
55540;BME280;41384;51.418;7.286;2023-05-25T06:58:10;100931.16;;;12.30;94.25
55540;BME280;41384;51.418;7.286;2023-05-25T07:00:36;100926.00;;;12.44;94.24
55540;BME280;41384;51.418;7.286;2023-05-25T07:03:01;100929.69;;;12.49;93.22
55540;BME280;41384;51.418;7.286;2023-05-25T07:05:27;100927.66;;;12.45;94.73
55540;BME280;41384;51.418;7.286;2023-05-25T07:07:52;100920.72;;;12.44;93.44
55540;BME280;41384;51.418;7.286;2023-05-25T07:10:17;100926.06;;;12.29;92.99
55540;BME280;41384;51.418;7.286;2023-05-25T07:12:42;100926.25;;;12.49;92.61
55540;BME280;41384;51.418;7.286;2023-05-25T07:15:09;100927.25;;;12.76;91.51
55540;BME280;41384;51.418;7.286;2023-05-25T07:17:34;100926.69;;;12.81;90.93
55540;BME280;41384;51.418;7.286;2023-05-25T07:20:00;100927.78;;;12.65;90.67
55540;BME280;41384;51.418;7.286;2023-05-25T07:22:26;100933.56;;;12.75;90.14
55540;BME280;41384;51.418;7.286;2023-05-25T07:24:51;100933.16;;;12.78;89.26
55540;BME280;41384;51.418;7.286;2023-05-25T07:27:16;100939.06;;;12.74;90.28
55540;BME280;41384;51.418;7.286;2023-05-25T07:29:43;100934.44;;;12.82;88.74
55540;BME280;41384;51.418;7.286;2023-05-25T07:32:08;100937.66;;;12.78;87.89
55540;BME280;41384;51.418;7.286;2023-05-25T07:34:34;100936.84;;;12.77;87.84
55540;BME280;41384;51.418;7.286;2023-05-25T07:36:59;100946.25;;;12.80;86.99
55540;BME280;41384;51.418;7.286;2023-05-25T07:39:24;100943.03;;;12.84;87.10
55540;BME280;41384;51.418;7.286;2023-05-25T07:41:50;100954.91;;;12.95;86.63
55540;BME280;41384;51.418;7.286;2023-05-25T07:44:15;100953.41;;;13.14;85.77
55540;BME280;41384;51.418;7.286;2023-05-25T07:46:41;100947.69;;;13.18;85.81
55540;BME280;41384;51.418;7.286;2023-05-25T07:49:06;100952.41;;;13.22;84.57
55540;BME280;41384;51.418;7.286;2023-05-25T07:51:37;100958.72;;;13.21;83.39
55540;BME280;41384;51.418;7.286;2023-05-25T07:54:02;100955.66;;;13.18;82.88
55540;BME280;41384;51.418;7.286;2023-05-25T07:56:27;100952.69;;;13.34;84.22
55540;BME280;41384;51.418;7.286;2023-05-25T07:58:53;100965.09;;;13.27;83.09
55540;BME280;41384;51.418;7.286;2023-05-25T08:01:18;100961.19;;;13.23;83.31
55540;BME280;41384;51.418;7.286;2023-05-25T08:03:43;100962.25;;;13.28;82.36
55540;BME280;41384;51.418;7.286;2023-05-25T08:06:09;100962.50;;;13.05;82.96
55540;BME280;41384;51.418;7.286;2023-05-25T08:08:34;100968.84;;;13.04;83.57
55540;BME280;41384;51.418;7.286;2023-05-25T08:11:00;100961.34;;;13.14;83.01
55540;BME280;41384;51.418;7.286;2023-05-25T08:13:25;100964.81;;;13.15;83.08
55540;BME280;41384;51.418;7.286;2023-05-25T08:15:50;100957.91;;;13.21;82.02
55540;BME280;41384;51.418;7.286;2023-05-25T08:18:16;100957.41;;;13.39;82.34
55540;BME280;41384;51.418;7.286;2023-05-25T08:20:43;100959.47;;;13.43;81.73
55540;BME280;41384;51.418;7.286;2023-05-25T08:23:08;100962.34;;;13.42;80.88
55540;BME280;41384;51.418;7.286;2023-05-25T08:25:33;100957.66;;;13.44;80.33
55540;BME280;41384;51.418;7.286;2023-05-25T08:27:59;100958.72;;;13.56;79.90
55540;BME280;41384;51.418;7.286;2023-05-25T08:30:24;100967.09;;;13.60;79.54
55540;BME280;41384;51.418;7.286;2023-05-25T08:32:49;100965.69;;;13.57;78.99
55540;BME280;41384;51.418;7.286;2023-05-25T08:35:14;100965.84;;;13.49;78.13
55540;BME280;41384;51.418;7.286;2023-05-25T08:37:41;100964.13;;;13.41;78.70
55540;BME280;41384;51.418;7.286;2023-05-25T08:40:14;100968.28;;;13.51;78.99
55540;BME280;41384;51.418;7.286;2023-05-25T08:42:43;100968.72;;;13.54;78.17
55540;BME280;41384;51.418;7.286;2023-05-25T08:45:09;100973.19;;;13.54;77.74
55540;BME280;41384;51.418;7.286;2023-05-25T08:47:40;100971.81;;;13.65;78.02
55540;BME280;41384;51.418;7.286;2023-05-25T08:50:07;100975.31;;;13.72;77.93
55540;BME280;41384;51.418;7.286;2023-05-25T08:52:35;100970.63;;;13.74;78.81
55540;BME280;41384;51.418;7.286;2023-05-25T08:55:03;100973.50;;;13.73;77.25
55540;BME280;41384;51.418;7.286;2023-05-25T08:57:42;100976.78;;;13.81;77.63
55540;BME280;41384;51.418;7.286;2023-05-25T09:00:13;100975.31;;;13.72;77.30
55540;BME280;41384;51.418;7.286;2023-05-25T09:05:20;100979.06;;;13.98;77.90
55540;BME280;41384;51.418;7.286;2023-05-25T09:07:46;100971.53;;;14.01;76.94
55540;BME280;41384;51.418;7.286;2023-05-25T09:10:13;100987.03;;;13.98;77.11
55540;BME280;41384;51.418;7.286;2023-05-25T09:12:40;100981.94;;;13.96;74.91
55540;BME280;41384;51.418;7.286;2023-05-25T09:15:07;100976.44;;;14.11;74.71
55540;BME280;41384;51.418;7.286;2023-05-25T09:17:34;100983.22;;;14.21;74.21
55540;BME280;41384;51.418;7.286;2023-05-25T09:19:59;100982.38;;;14.07;74.62
55540;BME280;41384;51.418;7.286;2023-05-25T09:22:24;100982.78;;;14.10;75.16
55540;BME280;41384;51.418;7.286;2023-05-25T09:24:50;100974.41;;;14.13;74.89
55540;BME280;41384;51.418;7.286;2023-05-25T09:27:17;100976.69;;;14.17;73.99
55540;BME280;41384;51.418;7.286;2023-05-25T09:29:45;100984.84;;;14.15;74.80
55540;BME280;41384;51.418;7.286;2023-05-25T09:32:11;100987.31;;;14.23;75.21
55540;BME280;41384;51.418;7.286;2023-05-25T09:34:36;100996.91;;;14.18;75.75
55540;BME280;41384;51.418;7.286;2023-05-25T09:37:03;100983.00;;;14.09;75.67
55540;BME280;41384;51.418;7.286;2023-05-25T09:39:28;100988.75;;;14.33;75.85
55540;BME280;41384;51.418;7.286;2023-05-25T09:41:55;100995.91;;;14.32;75.15
55540;BME280;41384;51.418;7.286;2023-05-25T09:44:21;100999.75;;;14.16;75.31
55540;BME280;41384;51.418;7.286;2023-05-25T09:46:46;100997.28;;;14.08;76.45
55540;BME280;41384;51.418;7.286;2023-05-25T09:49:12;101002.44;;;14.29;76.55
55540;BME280;41384;51.418;7.286;2023-05-25T09:51:37;101004.88;;;14.18;76.85
55540;BME280;41384;51.418;7.286;2023-05-25T09:54:03;101001.34;;;14.04;75.89
55540;BME280;41384;51.418;7.286;2023-05-25T09:56:31;101011.22;;;14.17;75.55
55540;BME280;41384;51.418;7.286;2023-05-25T09:58:57;101006.91;;;14.22;75.98
55540;BME280;41384;51.418;7.286;2023-05-25T10:01:23;101013.00;;;14.09;75.28
55540;BME280;41384;51.418;7.286;2023-05-25T10:03:48;101011.97;;;14.10;75.96
55540;BME280;41384;51.418;7.286;2023-05-25T10:06:15;101019.53;;;14.07;75.19
55540;BME280;41384;51.418;7.286;2023-05-25T10:08:43;101022.81;;;14.09;74.82
55540;BME280;41384;51.418;7.286;2023-05-25T10:11:09;101025.50;;;14.22;74.48
55540;BME280;41384;51.418;7.286;2023-05-25T10:13:37;101027.13;;;14.17;74.46
55540;BME280;41384;51.418;7.286;2023-05-25T10:16:03;101028.31;;;14.00;73.51
55540;BME280;41384;51.418;7.286;2023-05-25T10:18:31;101034.47;;;13.66;74.46
55540;BME280;41384;51.418;7.286;2023-05-25T10:21:02;101036.13;;;13.67;74.51
55540;BME280;41384;51.418;7.286;2023-05-25T10:23:37;101036.28;;;13.65;75.07
55540;BME280;41384;51.418;7.286;2023-05-25T10:26:06;101033.66;;;13.65;75.53
55540;BME280;41384;51.418;7.286;2023-05-25T10:28:36;101035.78;;;13.77;74.95
55540;BME280;41384;51.418;7.286;2023-05-25T10:31:02;101037.53;;;13.69;73.90
55540;BME280;41384;51.418;7.286;2023-05-25T10:33:28;101036.22;;;13.87;74.13
55540;BME280;41384;51.418;7.286;2023-05-25T10:35:54;101036.34;;;13.72;73.29
55540;BME280;41384;51.418;7.286;2023-05-25T10:38:20;101045.53;;;13.76;73.28
55540;BME280;41384;51.418;7.286;2023-05-25T10:40:46;101040.34;;;13.96;73.13
55540;BME280;41384;51.418;7.286;2023-05-25T10:43:15;101038.75;;;14.09;73.44
55540;BME280;41384;51.418;7.286;2023-05-25T10:45:41;101040.19;;;14.18;72.81
55540;BME280;41384;51.418;7.286;2023-05-25T10:48:07;101040.78;;;14.13;72.05
55540;BME280;41384;51.418;7.286;2023-05-25T10:50:35;101029.19;;;14.28;72.26
55540;BME280;41384;51.418;7.286;2023-05-25T10:53:11;101026.97;;;14.38;72.18
55540;BME280;41384;51.418;7.286;2023-05-25T10:56:01;101021.44;;;14.40;70.77
55540;BME280;41384;51.418;7.286;2023-05-25T10:58:28;101021.81;;;14.23;71.20
55540;BME280;41384;51.418;7.286;2023-05-25T11:01:07;101032.25;;;14.32;71.58
55540;BME280;41384;51.418;7.286;2023-05-25T11:06:18;101030.03;;;14.35;70.51
55540;BME280;41384;51.418;7.286;2023-05-25T11:08:58;101021.66;;;14.45;69.83
55540;BME280;41384;51.418;7.286;2023-05-25T11:17:14;101017.03;;;14.87;68.28
55540;BME280;41384;51.418;7.286;2023-05-25T11:19:48;101017.63;;;15.03;67.78
55540;BME280;41384;51.418;7.286;2023-05-25T11:22:30;101018.84;;;15.14;67.59
55540;BME280;41384;51.418;7.286;2023-05-25T11:24:57;101019.25;;;15.04;67.18
55540;BME280;41384;51.418;7.286;2023-05-25T11:27:23;101017.19;;;14.99;68.00
55540;BME280;41384;51.418;7.286;2023-05-25T11:29:50;101013.53;;;15.07;69.56
55540;BME280;41384;51.418;7.286;2023-05-25T11:32:16;101014.13;;;15.16;68.72
55540;BME280;41384;51.418;7.286;2023-05-25T11:34:41;101005.31;;;15.29;68.23
55540;BME280;41384;51.418;7.286;2023-05-25T11:37:17;101000.19;;;15.21;67.32
55540;BME280;41384;51.418;7.286;2023-05-25T11:39:46;100997.31;;;15.29;67.08
55540;BME280;41384;51.418;7.286;2023-05-25T11:42:13;100993.22;;;15.33;67.81
55540;BME280;41384;51.418;7.286;2023-05-25T11:44:39;100988.13;;;15.25;66.69
55540;BME280;41384;51.418;7.286;2023-05-25T11:47:07;100992.00;;;15.29;66.48
55540;BME280;41384;51.418;7.286;2023-05-25T11:49:33;100995.69;;;15.35;67.13
55540;BME280;41384;51.418;7.286;2023-05-25T11:51:58;100987.25;;;15.44;66.82
55540;BME280;41384;51.418;7.286;2023-05-25T11:54:28;100983.19;;;15.42;67.35
55540;BME280;41384;51.418;7.286;2023-05-25T11:56:55;100984.81;;;15.43;66.74
55540;BME280;41384;51.418;7.286;2023-05-25T11:59:24;100993.63;;;15.37;67.47
55540;BME280;41384;51.418;7.286;2023-05-25T12:02:00;100979.94;;;15.26;67.53
55540;BME280;41384;51.418;7.286;2023-05-25T12:04:26;100987.16;;;15.06;67.79
55540;BME280;41384;51.418;7.286;2023-05-25T12:06:51;100994.13;;;15.07;68.03
55540;BME280;41384;51.418;7.286;2023-05-25T12:09:20;100981.44;;;15.09;68.83
55540;BME280;41384;51.418;7.286;2023-05-25T12:11:46;100982.38;;;15.28;68.81
55540;BME280;41384;51.418;7.286;2023-05-25T12:14:12;100981.97;;;15.38;69.79
55540;BME280;41384;51.418;7.286;2023-05-25T12:16:37;100986.25;;;15.32;69.39
55540;BME280;41384;51.418;7.286;2023-05-25T12:19:05;100983.00;;;15.30;69.11
55540;BME280;41384;51.418;7.286;2023-05-25T12:21:31;100979.34;;;15.24;69.56
55540;BME280;41384;51.418;7.286;2023-05-25T12:23:57;100974.63;;;15.20;70.19
55540;BME280;41384;51.418;7.286;2023-05-25T12:26:24;100976.47;;;15.26;70.84
55540;BME280;41384;51.418;7.286;2023-05-25T12:29:06;100978.28;;;15.32;70.45
55540;BME280;41384;51.418;7.286;2023-05-25T12:31:33;100977.47;;;15.25;69.80
55540;BME280;41384;51.418;7.286;2023-05-25T12:34:13;100974.63;;;15.26;68.45
55540;BME280;41384;51.418;7.286;2023-05-25T12:36:43;100973.00;;;15.25;69.40
55540;BME280;41384;51.418;7.286;2023-05-25T12:39:10;100977.63;;;15.43;69.25
55540;BME280;41384;51.418;7.286;2023-05-25T12:41:50;100977.03;;;15.41;69.08
55540;BME280;41384;51.418;7.286;2023-05-25T12:44:23;100968.00;;;15.42;68.73
55540;BME280;41384;51.418;7.286;2023-05-25T12:46:50;100976.22;;;15.34;69.24
55540;BME280;41384;51.418;7.286;2023-05-25T12:49:33;100963.75;;;15.28;69.45
55540;BME280;41384;51.418;7.286;2023-05-25T12:52:00;100975.44;;;15.27;69.36
55540;BME280;41384;51.418;7.286;2023-05-25T12:54:43;100980.59;;;15.15;69.70
55540;BME280;41384;51.418;7.286;2023-05-25T12:57:13;100975.19;;;15.35;70.24
55540;BME280;41384;51.418;7.286;2023-05-25T12:59:41;100971.13;;;15.26;70.05